createdAt,value
2023-02-09T00:00:08.575Z,92.08
2023-02-09T00:02:35.626Z,92.07
2023-02-09T00:05:02.166Z,92.01
2023-02-09T00:07:28.791Z,91.92
2023-02-09T00:09:55.364Z,92.47
2023-02-09T00:12:40.410Z,91.68
2023-02-09T00:15:07.782Z,91.99
2023-02-09T00:17:35.854Z,92.08
2023-02-09T00:20:06.322Z,92.20
2023-02-09T00:22:33.404Z,92.31
2023-02-09T00:24:59.940Z,91.92
2023-02-09T00:27:26.404Z,92.22
2023-02-09T00:29:53.085Z,92.44
2023-02-09T00:32:19.563Z,92.66
2023-02-09T00:34:46.045Z,92.38
2023-02-09T00:37:12.946Z,92.45
2023-02-09T00:39:39.392Z,92.64
2023-02-09T00:42:05.900Z,92.99
2023-02-09T00:44:36.102Z,92.16
2023-02-09T00:47:03.085Z,92.98
2023-02-09T00:49:29.904Z,93.22
2023-02-09T00:51:56.443Z,93.16
2023-02-09T00:54:23.155Z,92.90
2023-02-09T00:56:49.829Z,93.14
2023-02-09T00:59:16.730Z,93.38
2023-02-09T01:01:43.198Z,93.86
2023-02-09T01:04:09.730Z,93.33
2023-02-09T01:06:36.175Z,92.93
2023-02-09T01:09:03.165Z,92.80
2023-02-09T01:11:30.306Z,92.91
2023-02-09T01:13:57.952Z,93.19
2023-02-09T01:16:25.059Z,93.57
2023-02-09T01:18:51.579Z,94.13
2023-02-09T01:21:20.853Z,94.24
2023-02-09T01:23:48.306Z,93.53
2023-02-09T01:26:16.170Z,93.50
2023-02-09T01:28:42.909Z,93.42
2023-02-09T01:31:23.117Z,93.38
2023-02-09T01:33:50.292Z,93.43
2023-02-09T01:36:16.948Z,93.50
2023-02-09T01:38:43.403Z,93.42
2023-02-09T01:41:10.580Z,93.95
2023-02-09T01:43:55.558Z,93.62
2023-02-09T01:46:23.772Z,93.69
2023-02-09T01:48:53.416Z,93.83
2023-02-09T01:51:20.350Z,93.81
2023-02-09T01:53:47.628Z,93.32
2023-02-09T01:56:20.498Z,93.02
2023-02-09T01:58:47.875Z,93.02
2023-02-09T02:01:14.657Z,92.91
2023-02-09T02:03:41.376Z,92.94
2023-02-09T02:06:12.890Z,92.95
2023-02-09T02:08:55.555Z,93.33
2023-02-09T02:11:23.680Z,92.97
2023-02-09T02:13:50.295Z,93.04
2023-02-09T02:16:36.164Z,93.20
2023-02-09T02:19:37.241Z,92.74
2023-02-09T02:22:17.784Z,92.53
2023-02-09T02:24:53.195Z,92.40
2023-02-09T02:27:32.087Z,92.83
2023-02-09T02:30:35.110Z,92.83
2023-02-09T02:33:31.253Z,93.07
2023-02-09T02:36:06.648Z,92.92
2023-02-09T02:38:39.962Z,93.00
2023-02-09T02:41:15.253Z,93.13
2023-02-09T02:43:59.884Z,92.76
2023-02-09T02:46:46.376Z,93.25
2023-02-09T02:49:27.610Z,93.21
2023-02-09T02:51:56.769Z,93.03
2023-02-09T02:54:30.148Z,92.68
2023-02-09T02:57:01.724Z,92.76
2023-02-09T02:59:33.448Z,92.25
2023-02-09T03:02:07.286Z,92.89
2023-02-09T03:04:34.658Z,92.60
2023-02-09T03:07:01.332Z,92.93
2023-02-09T03:09:28.002Z,92.90
2023-02-09T03:11:57.845Z,92.93
2023-02-09T03:14:29.897Z,93.04
2023-02-09T03:17:27.980Z,93.09
2023-02-09T03:20:04.183Z,92.93
2023-02-09T03:22:35.100Z,92.74
2023-02-09T03:25:07.876Z,92.97
2023-02-09T03:27:48.144Z,93.22
2023-02-09T03:30:17.252Z,92.85
2023-02-09T03:32:45.790Z,92.67
2023-02-09T03:35:15.477Z,92.51
2023-02-09T03:37:42.216Z,92.25
2023-02-09T03:40:09.807Z,92.19
2023-02-09T03:42:36.439Z,92.25
2023-02-09T03:45:02.972Z,92.53
2023-02-09T03:47:30.754Z,92.15
2023-02-09T03:49:58.481Z,92.62
2023-02-09T03:52:25.153Z,92.31
2023-02-09T03:54:51.637Z,91.77
2023-02-09T03:57:18.081Z,92.22
2023-02-09T03:59:44.524Z,92.60
2023-02-09T04:02:11.552Z,91.86
2023-02-09T04:04:38.142Z,92.08
2023-02-09T04:07:04.886Z,92.12
2023-02-09T04:09:31.350Z,92.36
2023-02-09T04:11:58.078Z,92.13
2023-02-09T04:14:24.690Z,92.76
2023-02-09T04:16:51.354Z,92.98
2023-02-09T04:19:17.932Z,92.83
2023-02-09T04:21:44.428Z,92.40
2023-02-09T04:24:10.915Z,92.54
2023-02-09T04:26:37.523Z,92.67
2023-02-09T04:29:04.693Z,92.35
2023-02-09T04:31:31.787Z,92.00
2023-02-09T04:33:58.422Z,92.07
2023-02-09T04:36:24.926Z,92.06
2023-02-09T04:38:51.526Z,91.98
2023-02-09T04:41:18.141Z,91.76
2023-02-09T04:43:46.228Z,91.92
2023-02-09T04:46:16.983Z,91.73
2023-02-09T04:48:44.056Z,91.24
2023-02-09T04:51:10.601Z,90.63
2023-02-09T04:53:37.385Z,91.67
2023-02-09T04:56:04.366Z,91.57
2023-02-09T04:58:49.351Z,91.63
2023-02-09T05:01:19.669Z,91.97
2023-02-09T05:03:46.201Z,92.79
2023-02-09T05:06:12.993Z,92.16
2023-02-09T05:08:39.544Z,92.62
2023-02-09T05:11:06.421Z,92.71
2023-02-09T05:13:32.867Z,92.77
2023-02-09T05:15:59.452Z,92.36
2023-02-09T05:18:25.932Z,92.25
2023-02-09T05:20:52.637Z,92.92
2023-02-09T05:23:19.353Z,93.55
2023-02-09T05:25:46.136Z,93.11
2023-02-09T05:28:13.120Z,93.29
2023-02-09T05:30:39.718Z,92.97
2023-02-09T05:33:06.221Z,93.41
2023-02-09T05:35:32.818Z,93.46
2023-02-09T05:37:59.424Z,93.97
2023-02-09T05:40:25.938Z,93.58
2023-02-09T05:42:52.493Z,93.73
2023-02-09T05:45:19.172Z,93.90
2023-02-09T05:47:46.403Z,94.16
2023-02-09T05:50:12.966Z,94.38
2023-02-09T05:52:39.550Z,94.64
2023-02-09T05:55:06.318Z,94.67
2023-02-09T05:57:32.869Z,94.82
2023-02-09T05:59:59.402Z,94.53
2023-02-09T06:02:25.980Z,94.95
2023-02-09T06:04:52.545Z,95.28
2023-02-09T06:07:19.074Z,95.50
2023-02-09T06:09:45.657Z,94.99
2023-02-09T06:12:12.306Z,94.76
2023-02-09T06:14:38.841Z,94.65
2023-02-09T06:17:05.346Z,94.84
2023-02-09T06:19:31.991Z,94.86
2023-02-09T06:21:58.780Z,94.80
2023-02-09T06:24:25.439Z,94.96
2023-02-09T06:26:51.928Z,95.24
2023-02-09T06:29:18.555Z,95.13
2023-02-09T06:31:45.115Z,95.07
2023-02-09T06:34:11.889Z,95.11
2023-02-09T06:36:38.401Z,94.99
2023-02-09T06:39:09.527Z,94.95
2023-02-09T06:41:36.422Z,94.98
2023-02-09T06:44:03.606Z,94.82
2023-02-09T06:46:30.186Z,94.65
2023-02-09T06:48:57.629Z,94.96
2023-02-09T06:51:26.110Z,94.91
2023-02-09T06:53:52.692Z,94.72
2023-02-09T06:56:20.311Z,94.28
2023-02-09T06:58:46.808Z,93.83
2023-02-09T07:01:15.844Z,93.94
2023-02-09T07:03:43.190Z,93.49
2023-02-09T07:06:12.982Z,93.15
2023-02-09T07:08:40.850Z,93.22
2023-02-09T07:11:10.193Z,93.42
2023-02-09T07:13:36.951Z,93.57
2023-02-09T07:16:08.775Z,93.10
2023-02-09T07:18:35.736Z,93.23
2023-02-09T07:21:08.638Z,92.69
2023-02-09T07:23:35.499Z,92.91
2023-02-09T07:26:07.348Z,92.31
2023-02-09T07:28:35.718Z,92.12
2023-02-09T07:31:05.015Z,92.29
2023-02-09T07:33:32.149Z,90.89
2023-02-09T07:35:58.645Z,91.58
2023-02-09T07:38:25.345Z,91.24
2023-02-09T07:40:51.970Z,90.26
2023-02-09T07:43:18.504Z,90.30
2023-02-09T07:45:45.301Z,90.08
2023-02-09T07:48:12.142Z,89.65
2023-02-09T07:50:39.044Z,89.38
2023-02-09T07:53:05.642Z,89.08
2023-02-09T07:55:32.214Z,88.69
2023-02-09T07:57:58.754Z,88.67
2023-02-09T08:00:25.624Z,87.20
2023-02-09T08:02:52.425Z,86.38
2023-02-09T08:05:28.568Z,86.07
2023-02-09T08:07:56.019Z,86.50
2023-02-09T08:10:23.262Z,86.55
2023-02-09T08:13:05.043Z,85.43
2023-02-09T08:15:37.365Z,85.49
2023-02-09T08:18:07.260Z,84.53
2023-02-09T08:20:33.905Z,84.84
2023-02-09T08:23:05.572Z,85.10
2023-02-09T08:25:33.092Z,84.75
2023-02-09T08:27:59.762Z,81.47
2023-02-09T08:30:26.377Z,77.26
2023-02-09T08:32:53.028Z,66.26
2023-02-09T08:35:19.648Z,50.08
2023-02-09T08:37:46.419Z,40.46
2023-02-09T08:40:15.073Z,37.50
2023-02-09T08:42:41.716Z,34.93
2023-02-09T08:45:08.849Z,31.86
2023-02-09T08:47:35.703Z,29.21
2023-02-09T08:50:02.387Z,24.60
2023-02-09T08:52:29.277Z,23.49
2023-02-09T08:54:55.848Z,22.62
2023-02-09T08:57:24.224Z,21.73
2023-02-09T08:59:54.043Z,21.50
2023-02-09T09:02:20.625Z,20.88
2023-02-09T09:04:48.102Z,21.07
2023-02-09T09:07:14.663Z,21.35
2023-02-09T09:09:41.308Z,21.34
2023-02-09T09:12:08.010Z,21.76
2023-02-09T09:14:34.732Z,21.32
2023-02-09T09:17:01.445Z,22.08
2023-02-09T09:19:29.269Z,21.17
2023-02-09T09:21:56.825Z,20.16
2023-02-09T09:24:28.010Z,20.10
2023-02-09T09:26:55.510Z,19.61
2023-02-09T09:29:22.295Z,19.79
2023-02-09T09:31:48.936Z,19.92
2023-02-09T09:34:15.627Z,22.41
2023-02-09T09:36:42.256Z,25.50
2023-02-09T09:39:08.837Z,29.44
2023-02-09T09:41:37.525Z,32.25
2023-02-09T09:44:13.267Z,36.07
2023-02-09T09:46:42.148Z,37.89
2023-02-09T09:49:19.863Z,38.33
2023-02-09T09:51:48.320Z,40.96
2023-02-09T09:54:21.444Z,41.79
2023-02-09T09:56:48.759Z,44.40
2023-02-09T09:59:21.629Z,44.28
2023-02-09T10:01:50.864Z,46.17
2023-02-09T10:04:20.992Z,47.30
2023-02-09T10:06:52.723Z,48.25
2023-02-09T10:09:37.616Z,49.10
2023-02-09T10:12:22.979Z,50.97
2023-02-09T10:14:52.189Z,51.78
2023-02-09T10:17:18.734Z,50.75
2023-02-09T10:20:00.676Z,50.43
2023-02-09T10:22:27.428Z,51.44
2023-02-09T10:24:54.093Z,51.25
2023-02-09T10:27:31.433Z,51.12
2023-02-09T10:30:17.588Z,51.27
2023-02-09T10:32:44.459Z,50.85
2023-02-09T10:35:27.422Z,50.99
2023-02-09T10:38:01.552Z,52.22
2023-02-09T10:40:31.363Z,53.12
2023-02-09T10:43:00.162Z,53.02
2023-02-09T10:45:28.263Z,54.24
2023-02-09T10:48:13.443Z,53.82
2023-02-09T10:51:01.994Z,54.63
2023-02-09T10:53:31.875Z,54.93
2023-02-09T10:56:02.928Z,54.35
2023-02-09T10:58:32.322Z,54.54
2023-02-09T11:01:07.308Z,54.43
2023-02-09T11:03:33.983Z,54.99
2023-02-09T11:06:15.525Z,54.48
2023-02-09T11:08:46.877Z,54.04
2023-02-09T11:11:23.676Z,52.87
2023-02-09T11:13:50.376Z,52.78
2023-02-09T11:16:30.143Z,52.13
2023-02-09T11:19:02.054Z,52.80
2023-02-09T11:22:03.007Z,52.78
2023-02-09T11:24:45.396Z,52.16
2023-02-09T11:27:23.625Z,52.25
2023-02-09T11:30:00.868Z,51.46
2023-02-09T11:32:35.794Z,50.63
2023-02-09T11:35:13.612Z,48.75
2023-02-09T11:38:00.938Z,47.92
2023-02-09T11:40:38.356Z,46.62
2023-02-09T11:43:10.910Z,46.25
2023-02-09T11:45:37.678Z,52.65
2023-02-09T11:48:24.373Z,46.21
2023-02-09T11:51:13.573Z,45.99
2023-02-09T11:53:54.144Z,45.29
2023-02-09T11:56:23.205Z,44.86
2023-02-09T11:59:19.041Z,45.47
2023-02-09T12:02:01.924Z,45.77
2023-02-09T12:04:49.942Z,45.21
2023-02-09T12:07:35.280Z,45.38
2023-02-09T12:10:10.786Z,45.47
2023-02-09T12:13:19.274Z,45.52
2023-02-09T12:15:49.411Z,45.04
2023-02-09T12:18:19.300Z,45.64
2023-02-09T12:21:00.247Z,46.39
2023-02-09T12:23:34.799Z,46.41
2023-02-09T12:26:16.429Z,45.28
2023-02-09T12:29:04.810Z,45.81
2023-02-09T12:31:32.296Z,45.43
2023-02-09T12:33:58.995Z,46.00
2023-02-09T12:36:32.555Z,46.63
2023-02-09T12:39:25.090Z,47.02
2023-02-09T12:41:51.622Z,47.58
2023-02-09T12:44:19.416Z,48.27
2023-02-09T12:46:48.467Z,48.79
2023-02-09T12:49:15.798Z,48.76
2023-02-09T12:51:55.539Z,47.73
2023-02-09T12:54:42.020Z,47.55
2023-02-09T12:57:14.814Z,47.20
2023-02-09T12:59:50.879Z,47.36
2023-02-09T13:02:35.735Z,47.95
2023-02-09T13:05:07.581Z,47.45
2023-02-09T13:07:34.031Z,46.88
2023-02-09T13:10:16.300Z,46.80
2023-02-09T13:12:47.390Z,47.71
2023-02-09T13:15:16.849Z,46.63
2023-02-09T13:18:06.371Z,46.45
2023-02-09T13:21:00.810Z,46.25
2023-02-09T13:23:33.356Z,45.56
2023-02-09T13:26:21.303Z,45.18
2023-02-09T13:28:48.311Z,44.44
2023-02-09T13:31:34.623Z,44.12
2023-02-09T13:34:27.572Z,44.61
2023-02-09T13:37:17.333Z,43.81
2023-02-09T13:39:44.263Z,44.03
2023-02-09T13:42:22.921Z,43.42
2023-02-09T13:44:54.684Z,43.87
2023-02-09T13:47:21.792Z,44.62
2023-02-09T13:50:03.530Z,44.07
2023-02-09T13:52:38.652Z,43.55
2023-02-09T13:55:19.640Z,43.64
2023-02-09T13:58:07.263Z,43.69
2023-02-09T14:00:44.426Z,44.35
2023-02-09T14:03:29.389Z,44.72
2023-02-09T14:06:14.063Z,44.15
2023-02-09T14:08:40.916Z,44.11
2023-02-09T14:11:41.931Z,43.88
2023-02-09T14:14:21.207Z,43.61
2023-02-09T14:16:53.778Z,42.71
2023-02-09T14:19:30.461Z,41.57
2023-02-09T14:21:57.199Z,41.80
2023-02-09T14:24:25.350Z,41.58
2023-02-09T14:26:55.658Z,42.07
2023-02-09T14:29:23.476Z,43.00
2023-02-09T14:31:58.339Z,42.64
2023-02-09T14:34:27.882Z,43.38
2023-02-09T14:36:57.188Z,44.49
2023-02-09T14:39:23.652Z,44.60
2023-02-09T14:42:14.970Z,44.70
2023-02-09T14:45:13.544Z,45.76
2023-02-09T14:47:43.991Z,45.18
2023-02-09T14:50:20.544Z,45.94
2023-02-09T14:52:48.386Z,45.00
2023-02-09T14:55:26.371Z,46.11
2023-02-09T14:57:52.931Z,46.48
2023-02-09T15:00:28.236Z,46.38
2023-02-09T15:02:55.320Z,47.13
2023-02-09T15:05:23.018Z,46.98
2023-02-09T15:07:53.551Z,47.59
2023-02-09T15:10:22.680Z,47.86
2023-02-09T15:12:49.416Z,48.20
2023-02-09T15:15:18.659Z,48.36
2023-02-09T15:17:45.508Z,48.86
2023-02-09T15:20:16.512Z,49.18
2023-02-09T15:22:43.509Z,49.10
2023-02-09T15:25:13.663Z,49.69
2023-02-09T15:27:52.465Z,49.75
2023-02-09T15:30:24.431Z,50.02
2023-02-09T15:32:51.558Z,50.95
2023-02-09T15:35:20.450Z,51.34
2023-02-09T15:37:49.512Z,51.04
2023-02-09T15:40:42.997Z,52.17
2023-02-09T15:43:30.483Z,52.70
2023-02-09T15:46:06.022Z,52.26
2023-02-09T15:48:32.791Z,52.88
2023-02-09T15:51:00.107Z,53.38
2023-02-09T15:53:26.978Z,53.78
2023-02-09T15:55:54.629Z,53.92
2023-02-09T15:58:35.899Z,53.99
2023-02-09T16:01:02.987Z,54.18
2023-02-09T16:03:31.614Z,54.72
2023-02-09T16:06:00.627Z,54.36
2023-02-09T16:08:30.318Z,54.65
2023-02-09T16:10:56.859Z,55.04
2023-02-09T16:13:23.541Z,54.96
2023-02-09T16:15:50.192Z,55.08
2023-02-09T16:18:16.747Z,54.51
2023-02-09T16:20:47.011Z,54.92
2023-02-09T16:23:21.310Z,55.32
2023-02-09T16:25:49.880Z,55.60
2023-02-09T16:28:17.057Z,55.23
2023-02-09T16:30:55.213Z,55.42
2023-02-09T16:33:23.765Z,55.71
2023-02-09T16:35:54.895Z,55.83
2023-02-09T16:38:22.477Z,56.20
2023-02-09T16:40:49.539Z,56.31
2023-02-09T16:43:16.599Z,56.37
2023-02-09T16:45:53.950Z,56.39
2023-02-09T16:48:30.182Z,58.16
2023-02-09T16:50:56.843Z,56.44
2023-02-09T16:53:35.443Z,57.28
2023-02-09T16:56:04.902Z,57.58
2023-02-09T16:58:32.039Z,56.88
2023-02-09T17:00:58.715Z,56.89
2023-02-09T17:03:33.132Z,56.74
2023-02-09T17:05:59.637Z,57.17
2023-02-09T17:08:32.606Z,57.11
2023-02-09T17:11:00.019Z,57.47
2023-02-09T17:13:26.794Z,57.11
2023-02-09T17:16:00.176Z,57.81
2023-02-09T17:18:29.896Z,57.49
2023-02-09T17:21:21.778Z,57.78
2023-02-09T17:23:48.551Z,58.07
2023-02-09T17:26:15.416Z,57.87
2023-02-09T17:28:43.031Z,58.36
2023-02-09T17:31:36.107Z,58.55
2023-02-09T17:34:08.681Z,58.96
2023-02-09T17:36:35.571Z,59.57
2023-02-09T17:39:02.201Z,59.19
2023-02-09T17:41:33.727Z,59.22
2023-02-09T17:44:28.610Z,60.08
2023-02-09T17:46:58.348Z,59.62
2023-02-09T17:49:25.066Z,59.92
2023-02-09T17:51:52.847Z,58.91
2023-02-09T17:54:20.528Z,59.46
2023-02-09T17:56:47.355Z,59.59
2023-02-09T17:59:14.795Z,59.53
2023-02-09T18:01:46.226Z,59.59
2023-02-09T18:04:18.701Z,59.76
2023-02-09T18:06:45.213Z,59.42
2023-02-09T18:09:13.001Z,59.70
2023-02-09T18:11:45.890Z,60.22
2023-02-09T18:14:13.918Z,59.98
2023-02-09T18:16:41.338Z,60.26
2023-02-09T18:19:08.721Z,60.12
2023-02-09T18:21:35.261Z,60.31
2023-02-09T18:24:01.764Z,60.51
2023-02-09T18:26:28.404Z,60.78
2023-02-09T18:28:54.951Z,61.15
2023-02-09T18:31:21.528Z,60.63
2023-02-09T18:33:48.098Z,60.85
2023-02-09T18:36:15.191Z,61.05
2023-02-09T18:38:41.746Z,61.08
2023-02-09T18:41:14.471Z,61.11
2023-02-09T18:43:41.073Z,61.49
2023-02-09T18:46:07.768Z,61.54
2023-02-09T18:48:34.276Z,61.52
2023-02-09T18:51:00.827Z,62.26
2023-02-09T18:53:27.308Z,61.94
2023-02-09T18:55:54.038Z,61.96
2023-02-09T18:58:20.598Z,62.37
2023-02-09T19:00:47.200Z,62.48
2023-02-09T19:03:13.979Z,62.97
2023-02-09T19:05:40.939Z,62.52
2023-02-09T19:08:07.724Z,62.53
2023-02-09T19:10:35.992Z,62.78
2023-02-09T19:13:04.054Z,62.61
2023-02-09T19:15:32.596Z,62.56
2023-02-09T19:17:59.765Z,62.46
2023-02-09T19:20:30.562Z,62.76
2023-02-09T19:22:57.212Z,62.59
2023-02-09T19:25:26.177Z,62.75
2023-02-09T19:27:53.551Z,62.39
2023-02-09T19:30:24.902Z,63.21
2023-02-09T19:32:52.924Z,63.14
2023-02-09T19:35:22.273Z,62.93
2023-02-09T19:37:56.282Z,63.27
2023-02-09T19:40:36.025Z,63.11
2023-02-09T19:43:04.569Z,63.43
2023-02-09T19:45:36.267Z,63.39
2023-02-09T19:48:04.773Z,63.49
2023-02-09T19:50:31.368Z,62.66
2023-02-09T19:52:57.964Z,62.71
2023-02-09T19:55:24.819Z,62.65
2023-02-09T19:57:51.530Z,62.77
2023-02-09T20:00:18.593Z,62.88
2023-02-09T20:02:46.247Z,62.61
2023-02-09T20:05:14.749Z,62.22
2023-02-09T20:07:41.627Z,62.71
2023-02-09T20:10:09.086Z,62.46
2023-02-09T20:12:35.822Z,62.93
2023-02-09T20:15:02.638Z,62.74
2023-02-09T20:17:30.241Z,62.71
2023-02-09T20:19:56.867Z,62.33
2023-02-09T20:22:23.420Z,62.15
2023-02-09T20:24:50.137Z,62.85
2023-02-09T20:27:18.599Z,62.76
2023-02-09T20:29:45.067Z,62.26
2023-02-09T20:32:11.894Z,61.27
2023-02-09T20:34:38.390Z,60.99
2023-02-09T20:37:04.938Z,61.10
2023-02-09T20:39:31.516Z,60.68
2023-02-09T20:42:18.264Z,61.15
2023-02-09T20:45:03.350Z,61.59
2023-02-09T20:47:30.205Z,60.60
2023-02-09T20:49:59.868Z,60.23
2023-02-09T20:52:29.985Z,60.81
2023-02-09T20:54:57.013Z,60.37
2023-02-09T20:57:29.287Z,60.28
2023-02-09T20:59:59.812Z,60.15
2023-02-09T21:02:27.253Z,60.20
2023-02-09T21:04:55.361Z,60.05
2023-02-09T21:07:21.987Z,59.79
2023-02-09T21:09:48.470Z,59.87
2023-02-09T21:12:15.053Z,59.39
2023-02-09T21:14:45.043Z,60.20
2023-02-09T21:17:12.050Z,59.74
2023-02-09T21:19:38.626Z,59.91
2023-02-09T21:22:05.768Z,60.27
2023-02-09T21:24:32.573Z,59.71
2023-02-09T21:27:00.760Z,59.63
2023-02-09T21:29:31.273Z,60.01
2023-02-09T21:32:01.711Z,60.29
2023-02-09T21:34:28.278Z,59.85
2023-02-09T21:36:54.874Z,60.29
2023-02-09T21:39:21.467Z,60.55
2023-02-09T21:42:06.551Z,61.20
2023-02-09T21:44:35.185Z,61.17
2023-02-09T21:47:01.630Z,61.18
2023-02-09T21:49:31.464Z,60.76
2023-02-09T21:51:58.472Z,60.93
2023-02-09T21:54:26.216Z,61.11
2023-02-09T21:56:54.220Z,61.37
2023-02-09T21:59:20.719Z,61.64
2023-02-09T22:01:47.496Z,61.87
2023-02-09T22:04:14.110Z,61.66
2023-02-09T22:06:41.702Z,61.97
2023-02-09T22:09:08.562Z,62.43
2023-02-09T22:11:35.117Z,62.20
2023-02-09T22:14:01.914Z,62.03
2023-02-09T22:16:29.459Z,62.54
2023-02-09T22:18:56.734Z,62.31
2023-02-09T22:21:23.239Z,62.86
2023-02-09T22:23:52.345Z,62.70
2023-02-09T22:26:19.013Z,62.71
2023-02-09T22:28:46.714Z,63.11
2023-02-09T22:31:15.942Z,63.13
2023-02-09T22:33:42.942Z,63.05
2023-02-09T22:36:17.032Z,63.20
2023-02-09T22:38:46.889Z,63.88
2023-02-09T22:41:22.391Z,63.64
2023-02-09T22:43:49.773Z,64.03
2023-02-09T22:46:16.701Z,64.38
2023-02-09T22:48:43.368Z,64.59
2023-02-09T22:51:15.393Z,64.32
2023-02-09T22:53:41.980Z,64.94
2023-02-09T22:56:08.586Z,64.95
2023-02-09T22:58:35.185Z,66.35
2023-02-09T23:01:01.855Z,65.67
2023-02-09T23:03:28.323Z,65.42
2023-02-09T23:05:54.935Z,65.55
2023-02-09T23:08:23.052Z,66.07
2023-02-09T23:10:49.637Z,65.75
2023-02-09T23:13:16.185Z,66.49
2023-02-09T23:15:42.754Z,67.14
2023-02-09T23:18:09.444Z,68.12
2023-02-09T23:20:36.125Z,68.73
2023-02-09T23:23:06.630Z,68.87
2023-02-09T23:25:33.259Z,68.84
2023-02-09T23:27:59.791Z,68.88
2023-02-09T23:30:26.333Z,69.53
2023-02-09T23:32:52.874Z,69.33
2023-02-09T23:35:20.933Z,68.70
2023-02-09T23:37:47.384Z,68.79
2023-02-09T23:40:13.879Z,68.32
2023-02-09T23:42:40.402Z,68.49
2023-02-09T23:45:07.197Z,69.09
2023-02-09T23:47:33.773Z,69.72
2023-02-09T23:50:00.285Z,70.53
2023-02-09T23:52:26.844Z,71.25
2023-02-09T23:54:53.570Z,71.67
2023-02-09T23:57:23.323Z,70.99
2023-02-09T23:59:49.829Z,72.22
